Atlantic - Newfoundland: Past 24 Hour Conditions

 

Grates Cove

08:30 AM NDT 31 July 2014
This table is a summary of hourly weather conditions for the past 24 hours.
Date / Time
(NDT)
Wind(knots) Conditions Visibility(km) Pressure(kPa) Air tempC) Relative humidity(%) Dew pointC) Humidex
31 July 2014
8:30 WSW 15 N/A N/A 102.1 21 91 19 27
7:30 WSW 12 gust 17 N/A N/A 102.1 19 95 19 *
6:30 WSW 13 gust 19 N/A N/A 102.1 19 96 19 *
5:30 WSW 16 gust 24 N/A N/A 102.0 19 99 19 *
4:30 WSW 18 N/A N/A 102.0 19 98 18 *
3:30 WSW 21 gust 26 N/A N/A 101.9 19 96 19 *
2:30 WSW 20 N/A N/A 101.9 20 95 19 *
1:30 WSW 19 gust 24 N/A N/A 101.9 21 93 20 28
0:30 WSW 20 N/A N/A 101.9 20 97 20 27
30 July 2014
23:30 WSW 15 N/A N/A 101.9 21 94 20 29
22:30 WSW 14 N/A N/A 101.9 22 93 21 30
21:30 SW 18 N/A N/A 101.9 22 93 21 30
20:30 WSW 18 gust 23 N/A N/A 101.8 22 92 21 30
19:30 WSW 20 gust 26 N/A N/A 101.8 23 87 21 31
18:30 WSW 20 gust 26 N/A N/A 101.8 25 80 21 33
17:30 WSW 14 gust 19 N/A N/A 101.7 25 76 21 33
16:30 WSW 17 N/A N/A 101.7 24 79 20 32
15:30 W 16 N/A N/A 101.7 23 84 20 30
14:30 WSW 12 N/A N/A 101.7 27 71 21 35
13:30 WSW 9 N/A N/A 101.8 28 69 21 36
12:30 SW 7 N/A N/A 101.8 27 77 22 36
11:30 ENE 3 N/A N/A 101.8 23 77 18 29
10:30 SSE 2 N/A N/A 101.8 23 90 22 32
9:30 NNE 4 N/A N/A 101.8 22 85 19 29
8:30 WNW 9 N/A N/A 101.8 23 76 19 30
 
Map of Atlantic - Newfoundland marine weather areas Southwestern Grand Banks - 44138 Banquereau - 44139 Tail of the Bank - 44140 Nickerson Bank - 44251 Northeast Burgeo Bank - 44255 Blanc-Sablon Airport Cap Whittle Chevery Natashquan Airport Heath Point Miscou Island Grand Étang Ingonish Beach North Mountain St.Paul Island J.A. Douglas McCurdy Sydney Airport Charlottetown Airport East Point North Cape Argentia Bonavista Burgeo Cape Race Corner Brook Daniel's Harbour Englee Ferolle Point La Scie Port aux Basques Rocky Harbour Sagona Island St. Anthony Airport St. John's Int'l Airport St. Lawrence Stephenville Airport Twillingate Winterland Wreckhouse Cartwright Airport Mary's Harbour Grates Cove Pool's Island Marticot Island Long Pond Îles de la Madeleine Airport
Legend: buoyBuoy land stationLand Station